createdAt,value
2022-08-29T00:01:21.959Z,54.67
2022-08-29T00:03:50.503Z,55.63
2022-08-29T00:06:18.317Z,56.54
2022-08-29T00:08:45.472Z,56.81
2022-08-29T00:11:13.583Z,56.49
2022-08-29T00:13:40.891Z,56.74
2022-08-29T00:16:08.867Z,56.17
2022-08-29T00:18:36.826Z,56.72
2022-08-29T00:21:05.173Z,56.33
2022-08-29T00:23:32.609Z,56.19
2022-08-29T00:26:00.033Z,56.93
2022-08-29T00:28:27.186Z,56.29
2022-08-29T00:30:54.559Z,56.86
2022-08-29T00:33:21.985Z,56.58
2022-08-29T00:35:49.155Z,56.89
2022-08-29T00:38:19.177Z,56.67
2022-08-29T00:40:52.282Z,56.16
2022-08-29T00:43:21.239Z,56.97
2022-08-29T00:45:51.838Z,56.69
2022-08-29T00:48:19.226Z,56.62
2022-08-29T00:50:53.024Z,57.86
2022-08-29T00:53:23.126Z,56.98
2022-08-29T00:55:50.678Z,57.32
2022-08-29T00:58:21.884Z,56.86
2022-08-29T01:00:49.586Z,57.42
2022-08-29T01:03:17.167Z,57.48
2022-08-29T01:05:44.312Z,57.34
2022-08-29T01:08:13.243Z,57.02
2022-08-29T01:10:59.192Z,57.83
2022-08-29T01:13:28.971Z,56.76
2022-08-29T01:15:56.181Z,57.20
2022-08-29T01:18:23.410Z,57.40
2022-08-29T01:20:50.751Z,57.27
2022-08-29T01:23:22.137Z,57.33
2022-08-29T01:25:50.901Z,57.83
2022-08-29T01:28:22.992Z,57.90
2022-08-29T01:30:57.386Z,57.99
2022-08-29T01:33:24.991Z,57.84
2022-08-29T01:35:52.530Z,57.67
2022-08-29T01:38:27.755Z,57.21
2022-08-29T01:40:56.556Z,58.36
2022-08-29T01:43:23.777Z,58.33
2022-08-29T01:45:51.048Z,58.43
2022-08-29T01:48:18.984Z,58.65
2022-08-29T01:50:46.667Z,57.79
2022-08-29T01:53:14.077Z,58.48
2022-08-29T01:55:42.452Z,58.07
2022-08-29T01:58:09.671Z,58.20
2022-08-29T02:00:37.204Z,58.49
2022-08-29T02:03:04.642Z,58.56
2022-08-29T02:05:31.794Z,58.23
2022-08-29T02:07:58.958Z,58.35
2022-08-29T02:10:26.348Z,58.12
2022-08-29T02:12:53.941Z,57.95
2022-08-29T02:15:21.377Z,57.91
2022-08-29T02:17:48.900Z,58.30
2022-08-29T02:20:16.116Z,58.09
2022-08-29T02:22:43.382Z,57.92
2022-08-29T02:25:29.296Z,57.22
2022-08-29T02:27:58.645Z,57.59
2022-08-29T02:30:26.138Z,57.91
2022-08-29T02:32:54.080Z,57.75
2022-08-29T02:35:22.650Z,57.71
2022-08-29T02:37:51.879Z,57.83
2022-08-29T02:40:19.211Z,57.23
2022-08-29T02:42:52.051Z,57.10
2022-08-29T02:45:19.879Z,57.70
2022-08-29T02:47:47.131Z,57.93
2022-08-29T02:50:14.834Z,57.86
2022-08-29T02:52:42.606Z,58.30
2022-08-29T02:55:11.004Z,58.07
2022-08-29T02:57:38.477Z,57.40
2022-08-29T03:00:08.670Z,57.13
2022-08-29T03:02:35.900Z,58.03
2022-08-29T03:05:03.816Z,58.47
2022-08-29T03:07:30.996Z,58.01
2022-08-29T03:09:58.200Z,57.58
2022-08-29T03:12:25.646Z,57.72
2022-08-29T03:14:55.456Z,58.67
2022-08-29T03:17:22.648Z,58.06
2022-08-29T03:19:50.103Z,58.08
2022-08-29T03:22:18.012Z,58.28
2022-08-29T03:24:45.148Z,57.94
2022-08-29T03:27:13.072Z,58.11
2022-08-29T03:29:40.296Z,58.32
2022-08-29T03:32:07.460Z,58.06
2022-08-29T03:34:34.883Z,57.96
2022-08-29T03:37:02.050Z,58.18
2022-08-29T03:39:29.571Z,58.07
2022-08-29T03:41:57.006Z,58.06
2022-08-29T03:44:24.512Z,58.22
2022-08-29T03:46:51.798Z,58.49
2022-08-29T03:49:19.312Z,58.01
2022-08-29T03:51:46.508Z,58.31
2022-08-29T03:54:13.665Z,58.63
2022-08-29T03:56:41.139Z,58.51
2022-08-29T03:59:08.874Z,58.81
2022-08-29T04:01:36.166Z,58.63
2022-08-29T04:04:03.923Z,58.62
2022-08-29T04:06:31.245Z,58.91
2022-08-29T04:08:59.138Z,58.40
2022-08-29T04:11:28.550Z,58.30
2022-08-29T04:13:55.827Z,58.22
2022-08-29T04:16:24.277Z,58.24
2022-08-29T04:18:51.744Z,58.17
2022-08-29T04:21:18.985Z,58.07
2022-08-29T04:23:46.395Z,58.33
2022-08-29T04:26:35.840Z,58.08
2022-08-29T04:29:04.715Z,58.17
2022-08-29T04:31:32.288Z,58.95
2022-08-29T04:33:59.563Z,58.60
2022-08-29T04:36:28.206Z,58.44
2022-08-29T04:38:55.664Z,58.85
2022-08-29T04:41:23.241Z,58.79
2022-08-29T04:43:50.451Z,59.01
2022-08-29T04:46:24.448Z,59.12
2022-08-29T04:48:52.388Z,58.37
2022-08-29T04:51:19.923Z,58.78
2022-08-29T04:53:48.205Z,58.77
2022-08-29T04:56:15.387Z,58.71
2022-08-29T04:58:44.036Z,58.59
2022-08-29T05:01:15.062Z,58.62
2022-08-29T05:03:42.588Z,58.67
2022-08-29T05:06:12.008Z,58.78
2022-08-29T05:08:40.869Z,58.57
2022-08-29T05:11:10.106Z,58.46
2022-08-29T05:13:37.728Z,58.04
2022-08-29T05:16:06.299Z,58.21
2022-08-29T05:18:33.579Z,57.99
2022-08-29T05:21:01.808Z,59.26
2022-08-29T05:23:30.026Z,58.72
2022-08-29T05:25:58.540Z,58.67
2022-08-29T05:28:29.652Z,58.41
2022-08-29T05:30:57.015Z,57.60
2022-08-29T05:33:24.978Z,57.95
2022-08-29T05:35:52.480Z,59.02
2022-08-29T05:38:19.831Z,58.14
2022-08-29T05:40:46.986Z,60.19
2022-08-29T05:43:14.517Z,58.51
2022-08-29T05:45:42.882Z,57.45
2022-08-29T05:48:10.293Z,58.12
2022-08-29T05:50:43.612Z,58.96
2022-08-29T05:53:13.010Z,58.31
2022-08-29T05:55:40.886Z,60.00
2022-08-29T05:58:08.095Z,59.59
2022-08-29T06:00:37.372Z,57.70
2022-08-29T06:03:05.695Z,57.82
2022-08-29T06:05:33.579Z,58.48
2022-08-29T06:08:01.370Z,58.21
2022-08-29T06:10:28.825Z,58.23
2022-08-29T06:12:56.106Z,58.32
2022-08-29T06:15:23.431Z,58.19
2022-08-29T06:17:50.973Z,57.83
2022-08-29T06:20:18.274Z,59.43
2022-08-29T06:22:45.494Z,57.62
2022-08-29T06:25:37.537Z,58.47
2022-08-29T06:28:00.223Z,58.47
2022-08-29T06:30:27.649Z,57.93
2022-08-29T06:32:54.865Z,57.74
2022-08-29T06:35:22.005Z,56.29
2022-08-29T06:37:50.096Z,56.94
2022-08-29T06:40:17.335Z,54.49
2022-08-29T06:42:44.551Z,54.83
2022-08-29T06:45:12.002Z,55.71
2022-08-29T06:47:39.166Z,55.05
2022-08-29T06:50:06.864Z,53.76
2022-08-29T06:52:35.623Z,53.56
2022-08-29T06:55:03.078Z,53.03
2022-08-29T06:57:30.238Z,52.13
2022-08-29T06:59:57.757Z,51.49
2022-08-29T07:02:25.297Z,51.14
2022-08-29T07:04:52.502Z,50.44
2022-08-29T07:07:19.972Z,49.05
2022-08-29T07:09:47.142Z,48.82
2022-08-29T07:12:14.315Z,49.11
2022-08-29T07:14:41.776Z,50.20
2022-08-29T07:17:08.964Z,49.35
2022-08-29T07:19:36.135Z,49.31
2022-08-29T07:22:07.122Z,46.52
2022-08-29T07:24:34.403Z,45.97
2022-08-29T07:27:01.733Z,46.60
2022-08-29T07:29:29.173Z,46.12
2022-08-29T07:31:56.388Z,46.58
2022-08-29T07:34:23.537Z,47.70
2022-08-29T07:36:50.973Z,46.76
2022-08-29T07:39:19.272Z,45.88
2022-08-29T07:41:46.682Z,46.90
2022-08-29T07:44:17.119Z,46.37
2022-08-29T07:46:44.468Z,45.69
2022-08-29T07:49:12.915Z,45.67
2022-08-29T07:51:44.311Z,44.81
2022-08-29T07:54:13.444Z,45.65
2022-08-29T07:56:41.595Z,44.62
2022-08-29T07:59:08.797Z,45.78
2022-08-29T08:01:36.116Z,46.19
2022-08-29T08:04:03.725Z,43.78
2022-08-29T08:06:31.771Z,43.50
2022-08-29T08:09:01.816Z,43.84
2022-08-29T08:11:29.253Z,42.97
2022-08-29T08:13:56.487Z,44.02
2022-08-29T08:16:26.163Z,44.19
2022-08-29T08:18:54.310Z,42.50
2022-08-29T08:21:21.567Z,44.63
2022-08-29T08:23:48.778Z,43.35
2022-08-29T08:26:16.283Z,43.42
2022-08-29T08:28:43.849Z,40.58
2022-08-29T08:31:14.301Z,42.28
2022-08-29T08:33:41.962Z,41.59
2022-08-29T08:36:22.674Z,42.27
2022-08-29T08:38:50.573Z,43.43
2022-08-29T08:41:31.455Z,41.26
2022-08-29T08:44:00.990Z,41.38
2022-08-29T08:46:42.139Z,40.72
2022-08-29T08:49:15.200Z,40.36
2022-08-29T08:51:53.188Z,40.46
2022-08-29T08:54:22.412Z,40.47
2022-08-29T08:56:51.823Z,40.97
2022-08-29T08:59:26.974Z,39.47
2022-08-29T09:02:06.709Z,42.13
2022-08-29T09:04:56.754Z,43.34
2022-08-29T09:07:30.215Z,40.04
2022-08-29T09:10:04.687Z,41.00
2022-08-29T09:12:38.909Z,40.65
2022-08-29T09:15:16.545Z,41.80
2022-08-29T09:17:45.196Z,39.31
2022-08-29T09:20:13.983Z,42.18
2022-08-29T09:22:41.821Z,40.87
2022-08-29T09:25:10.478Z,39.94
2022-08-29T09:27:38.282Z,40.26
2022-08-29T09:30:05.580Z,39.75
2022-08-29T09:32:33.192Z,39.28
2022-08-29T09:35:09.474Z,41.71
2022-08-29T09:37:37.635Z,40.55
2022-08-29T09:40:12.614Z,40.32
2022-08-29T09:42:46.222Z,39.47
2022-08-29T09:45:17.921Z,40.71
2022-08-29T09:47:45.483Z,41.79
2022-08-29T09:50:20.622Z,39.93
2022-08-29T09:52:55.416Z,38.68
2022-08-29T09:55:24.562Z,40.90
2022-08-29T09:57:53.801Z,40.36
2022-08-29T10:00:25.586Z,40.45
2022-08-29T10:02:56.577Z,38.47
2022-08-29T10:05:28.854Z,40.70
2022-08-29T10:07:58.002Z,39.28
2022-08-29T10:10:30.785Z,38.47
2022-08-29T10:13:15.415Z,40.99
2022-08-29T10:16:15.207Z,39.98
2022-08-29T10:18:44.273Z,39.56
2022-08-29T10:21:16.032Z,41.54
2022-08-29T10:23:51.080Z,40.35
2022-08-29T10:26:27.034Z,38.12
2022-08-29T10:29:14.965Z,39.04
2022-08-29T10:31:47.067Z,41.93
2022-08-29T10:34:29.866Z,40.67
2022-08-29T10:37:01.125Z,40.14
2022-08-29T10:39:28.936Z,38.73
2022-08-29T10:42:00.596Z,37.72
2022-08-29T10:44:48.411Z,36.84
2022-08-29T10:47:26.987Z,39.24
2022-08-29T10:50:12.858Z,40.62
2022-08-29T10:52:47.608Z,36.19
2022-08-29T10:55:28.349Z,36.58
2022-08-29T10:57:56.199Z,37.59
2022-08-29T11:00:27.272Z,41.16
2022-08-29T11:02:54.387Z,37.93
2022-08-29T11:05:26.007Z,37.87
2022-08-29T11:07:56.568Z,39.38
2022-08-29T11:10:25.102Z,40.99
2022-08-29T11:12:59.169Z,38.53
2022-08-29T11:15:45.553Z,37.28
2022-08-29T11:18:25.101Z,39.93
2022-08-29T11:20:57.902Z,37.46
2022-08-29T11:23:30.981Z,38.05
2022-08-29T11:25:58.455Z,37.03
2022-08-29T11:31:19.899Z,37.14
2022-08-29T11:33:51.870Z,37.85
2022-08-29T11:36:38.029Z,37.05
2022-08-29T11:39:05.144Z,37.34
2022-08-29T11:41:33.841Z,37.70
2022-08-29T11:44:08.154Z,37.04
2022-08-29T11:46:40.278Z,37.95
2022-08-29T11:49:28.647Z,36.53
2022-08-29T11:52:00.314Z,36.76
2022-08-29T11:54:30.473Z,38.09
2022-08-29T11:57:00.929Z,36.79
2022-08-29T11:59:50.777Z,36.50
2022-08-29T12:02:39.338Z,38.06
2022-08-29T12:05:20.748Z,39.85
2022-08-29T12:07:49.031Z,37.95
2022-08-29T12:10:23.709Z,38.62
2022-08-29T12:12:58.989Z,36.82
2022-08-29T12:15:26.397Z,39.54
2022-08-29T12:18:03.414Z,38.25
2022-08-29T12:20:35.680Z,36.55
2022-08-29T12:23:06.283Z,37.17
2022-08-29T12:25:41.427Z,36.51
2022-08-29T12:28:17.761Z,37.60
2022-08-29T12:30:47.902Z,36.90
2022-08-29T12:33:20.484Z,36.60
2022-08-29T12:35:48.538Z,36.63
2022-08-29T12:38:42.101Z,36.80
2022-08-29T12:41:15.973Z,35.40
2022-08-29T12:43:43.854Z,36.59
2022-08-29T12:46:16.111Z,36.30
2022-08-29T12:48:46.285Z,37.46
2022-08-29T12:51:38.572Z,36.83
2022-08-29T12:54:06.164Z,36.71
2022-08-29T12:56:33.727Z,37.39
2022-08-29T12:59:01.676Z,35.58
2022-08-29T13:01:30.948Z,36.36
2022-08-29T13:04:06.436Z,36.17
2022-08-29T13:06:34.256Z,36.73
2022-08-29T13:09:02.043Z,38.77
2022-08-29T13:11:30.556Z,38.86
2022-08-29T13:14:07.305Z,36.68
2022-08-29T13:16:35.033Z,37.43
2022-08-29T13:19:11.460Z,37.29
2022-08-29T13:21:39.287Z,37.89
2022-08-29T13:24:11.496Z,36.55
2022-08-29T13:27:03.085Z,36.03
2022-08-29T13:29:40.355Z,35.90
2022-08-29T13:32:11.072Z,35.46
2022-08-29T13:34:38.210Z,35.70
2022-08-29T13:37:10.529Z,35.25
2022-08-29T13:39:47.651Z,36.20
2022-08-29T13:42:16.254Z,36.33
2022-08-29T13:44:49.479Z,36.19
2022-08-29T13:47:16.857Z,36.62
2022-08-29T13:49:44.023Z,37.01
2022-08-29T13:52:11.708Z,36.90
2022-08-29T13:54:41.524Z,36.70
2022-08-29T13:57:12.553Z,36.87
2022-08-29T13:59:40.437Z,38.63
2022-08-29T14:02:09.374Z,37.29
2022-08-29T14:04:39.878Z,35.53
2022-08-29T14:07:12.261Z,36.15
2022-08-29T14:09:41.145Z,37.19
2022-08-29T14:12:08.675Z,35.95
2022-08-29T14:14:35.859Z,35.75
2022-08-29T14:17:03.371Z,36.83
2022-08-29T14:19:30.860Z,35.81
2022-08-29T14:22:00.499Z,37.04
2022-08-29T14:24:29.158Z,35.85
2022-08-29T14:27:01.861Z,37.40
2022-08-29T14:29:31.063Z,37.21
2022-08-29T14:31:58.728Z,35.66
2022-08-29T14:34:30.580Z,36.76
2022-08-29T14:36:58.435Z,38.32
2022-08-29T14:39:26.539Z,36.67
2022-08-29T14:41:54.351Z,36.72
2022-08-29T14:44:24.873Z,36.05
2022-08-29T14:46:52.058Z,35.87
2022-08-29T14:49:19.269Z,35.93
2022-08-29T14:51:46.918Z,34.98
2022-08-29T14:54:14.140Z,35.46
2022-08-29T14:56:50.058Z,36.40
2022-08-29T14:59:18.491Z,35.71
2022-08-29T15:01:51.293Z,35.81
2022-08-29T15:04:36.549Z,36.73
2022-08-29T15:07:06.879Z,35.98
2022-08-29T15:09:34.666Z,36.41
2022-08-29T15:12:01.964Z,36.12
2022-08-29T15:14:29.113Z,36.09
2022-08-29T15:16:56.566Z,36.12
2022-08-29T15:22:11.812Z,35.86
2022-08-29T15:24:39.453Z,36.26
2022-08-29T15:27:06.929Z,35.98
2022-08-29T15:29:35.019Z,36.25
2022-08-29T15:32:02.213Z,36.35
2022-08-29T15:34:29.405Z,37.99
2022-08-29T15:36:57.207Z,37.56
2022-08-29T15:39:28.152Z,37.52
2022-08-29T15:41:55.973Z,37.60
2022-08-29T15:44:23.800Z,36.77
2022-08-29T15:46:52.571Z,37.03
2022-08-29T15:49:20.782Z,35.86
2022-08-29T15:51:49.426Z,36.99
2022-08-29T15:54:16.995Z,37.20
2022-08-29T15:56:44.181Z,36.33
2022-08-29T15:59:12.351Z,37.18
2022-08-29T16:01:43.689Z,36.90
2022-08-29T16:04:12.110Z,37.36
2022-08-29T16:06:39.290Z,37.94
2022-08-29T16:09:15.407Z,37.94
2022-08-29T16:11:44.639Z,38.03
2022-08-29T16:14:57.551Z,38.29
2022-08-29T16:16:59.667Z,36.96
2022-08-29T16:19:29.960Z,36.41
2022-08-29T16:22:00.107Z,36.75
2022-08-29T16:24:28.246Z,36.77
2022-08-29T16:26:55.508Z,37.83
2022-08-29T16:29:26.242Z,37.94
2022-08-29T16:31:58.069Z,39.79
2022-08-29T16:34:28.614Z,37.73
2022-08-29T16:36:56.861Z,37.42
2022-08-29T16:39:24.009Z,38.26
2022-08-29T16:41:51.646Z,38.47
2022-08-29T16:44:19.627Z,38.07
2022-08-29T16:46:46.815Z,38.83
2022-08-29T16:49:14.144Z,38.75
2022-08-29T16:51:41.782Z,38.46
2022-08-29T16:54:08.963Z,39.08
2022-08-29T16:56:36.209Z,39.69
2022-08-29T16:59:04.490Z,40.71
2022-08-29T17:01:37.809Z,41.38
2022-08-29T17:04:07.273Z,42.04
2022-08-29T17:06:34.474Z,41.73
2022-08-29T17:09:05.283Z,41.96
2022-08-29T17:11:35.814Z,40.90
2022-08-29T17:14:03.045Z,40.30
2022-08-29T17:16:30.388Z,41.09
2022-08-29T17:18:57.852Z,40.58
2022-08-29T17:21:25.837Z,41.10
2022-08-29T17:23:53.220Z,41.49
2022-08-29T17:26:20.941Z,41.90
2022-08-29T17:28:48.292Z,42.04
2022-08-29T17:31:15.991Z,41.70
2022-08-29T17:33:43.468Z,41.47
2022-08-29T17:36:11.039Z,41.94
2022-08-29T17:38:42.332Z,41.96
2022-08-29T17:41:15.054Z,41.77
2022-08-29T17:43:44.713Z,41.74
2022-08-29T17:46:12.431Z,42.16
2022-08-29T17:48:41.073Z,43.02
2022-08-29T17:51:08.266Z,42.10
2022-08-29T17:53:35.706Z,42.37
2022-08-29T17:56:12.582Z,42.80
2022-08-29T17:58:40.429Z,43.01
2022-08-29T18:01:12.366Z,43.29
2022-08-29T18:03:43.098Z,43.41
2022-08-29T18:06:10.455Z,43.61
2022-08-29T18:08:39.024Z,43.28
2022-08-29T18:11:06.570Z,43.54
2022-08-29T18:13:33.953Z,44.40
2022-08-29T18:16:02.016Z,45.08
2022-08-29T18:18:29.838Z,44.70
2022-08-29T18:20:57.005Z,44.60
2022-08-29T18:23:24.207Z,44.62
2022-08-29T18:25:51.695Z,44.73
2022-08-29T18:28:19.925Z,45.09
2022-08-29T18:30:48.267Z,45.39
2022-08-29T18:33:16.134Z,45.01
2022-08-29T18:35:43.783Z,45.62
2022-08-29T18:38:11.858Z,45.64
2022-08-29T18:40:47.330Z,45.33
2022-08-29T18:43:18.672Z,45.60
2022-08-29T18:45:50.687Z,44.75
2022-08-29T18:48:18.441Z,45.21
2022-08-29T18:50:47.384Z,46.81
2022-08-29T18:53:16.214Z,46.91
2022-08-29T18:55:49.212Z,47.37
2022-08-29T18:58:19.427Z,47.31
2022-08-29T19:00:47.967Z,47.36
2022-08-29T19:03:15.316Z,47.70
2022-08-29T19:05:49.770Z,47.73
2022-08-29T19:08:17.608Z,47.13
2022-08-29T19:10:46.843Z,47.69
2022-08-29T19:13:14.682Z,47.41
2022-08-29T19:15:43.109Z,47.64
2022-08-29T19:18:11.227Z,47.68
2022-08-29T19:21:00.195Z,47.69
2022-08-29T19:23:32.745Z,48.06
2022-08-29T19:26:00.545Z,48.45
2022-08-29T19:28:28.086Z,48.77
2022-08-29T19:30:57.516Z,48.03
2022-08-29T19:33:26.291Z,48.52
2022-08-29T19:35:54.068Z,48.72
2022-08-29T19:38:22.594Z,48.75
2022-08-29T19:40:56.463Z,48.32
2022-08-29T19:43:25.195Z,48.19
2022-08-29T19:45:52.590Z,48.21
2022-08-29T19:48:20.139Z,48.50
2022-08-29T19:50:48.764Z,49.28
2022-08-29T19:53:24.645Z,49.40
2022-08-29T19:55:55.462Z,49.89
2022-08-29T19:58:23.639Z,49.09
2022-08-29T20:01:03.108Z,50.06
2022-08-29T20:03:30.779Z,49.70
2022-08-29T20:05:59.685Z,49.74
2022-08-29T20:08:27.693Z,49.56
2022-08-29T20:10:58.707Z,49.98
2022-08-29T20:13:28.287Z,49.61
2022-08-29T20:16:08.244Z,50.05
2022-08-29T20:18:35.587Z,50.71
2022-08-29T20:21:03.182Z,50.49
2022-08-29T20:23:31.760Z,50.41
2022-08-29T20:26:01.603Z,50.01
2022-08-29T20:28:30.464Z,50.23
2022-08-29T20:30:57.674Z,50.97
2022-08-29T20:33:24.917Z,51.24
2022-08-29T20:36:11.205Z,52.22
2022-08-29T20:38:38.340Z,51.18
2022-08-29T20:41:05.765Z,51.47
2022-08-29T20:43:32.906Z,50.91
2022-08-29T20:46:00.253Z,51.05
2022-08-29T20:48:31.177Z,52.16
2022-08-29T20:50:59.902Z,51.97
2022-08-29T20:53:31.769Z,51.80
2022-08-29T20:56:00.159Z,51.44
2022-08-29T20:58:29.034Z,51.78
2022-08-29T21:00:57.292Z,52.05
2022-08-29T21:03:43.456Z,52.48
2022-08-29T21:06:11.363Z,52.03
2022-08-29T21:08:39.831Z,52.08
2022-08-29T21:11:07.784Z,52.31
2022-08-29T21:13:35.289Z,52.18
2022-08-29T21:16:04.619Z,52.91
2022-08-29T21:18:31.839Z,52.61
2022-08-29T21:20:59.321Z,52.16
2022-08-29T21:23:26.565Z,52.74
2022-08-29T21:25:54.144Z,52.68
2022-08-29T21:28:21.690Z,52.48
2022-08-29T21:30:49.633Z,52.89
2022-08-29T21:33:16.875Z,52.76
2022-08-29T21:35:44.429Z,53.26
2022-08-29T21:38:11.670Z,52.79
2022-08-29T21:40:50.522Z,53.02
2022-08-29T21:43:20.878Z,53.11
2022-08-29T21:45:48.097Z,53.31
2022-08-29T21:48:16.251Z,53.81
2022-08-29T21:50:44.831Z,53.84
2022-08-29T21:53:14.163Z,54.46
2022-08-29T21:55:41.608Z,53.56
2022-08-29T21:58:09.350Z,54.03
2022-08-29T22:00:36.928Z,54.05
2022-08-29T22:03:05.918Z,55.09
2022-08-29T22:05:33.547Z,54.29
2022-08-29T22:08:04.252Z,54.15
2022-08-29T22:10:33.981Z,54.07
2022-08-29T22:13:01.586Z,54.42
2022-08-29T22:15:47.609Z,54.20
2022-08-29T22:18:15.421Z,54.64
2022-08-29T22:20:43.707Z,54.48
2022-08-29T22:23:11.191Z,54.54
2022-08-29T22:25:38.614Z,54.55
2022-08-29T22:28:05.830Z,54.62
2022-08-29T22:30:33.072Z,54.99
2022-08-29T22:33:00.640Z,54.83
2022-08-29T22:35:28.835Z,55.54
2022-08-29T22:37:56.002Z,54.67
2022-08-29T22:40:23.513Z,54.88
2022-08-29T22:42:50.884Z,54.56
2022-08-29T22:45:18.155Z,55.00
2022-08-29T22:47:46.371Z,54.87
2022-08-29T22:50:15.643Z,54.58
2022-08-29T22:52:43.833Z,55.26
2022-08-29T22:55:13.518Z,55.61
2022-08-29T22:57:42.030Z,55.41
2022-08-29T23:00:09.537Z,55.54
2022-08-29T23:02:37.110Z,55.63
2022-08-29T23:05:08.927Z,55.51
2022-08-29T23:07:37.541Z,55.51
2022-08-29T23:10:05.838Z,55.50
2022-08-29T23:12:35.042Z,55.62
2022-08-29T23:15:04.215Z,55.98
2022-08-29T23:17:31.407Z,56.17
2022-08-29T23:19:58.603Z,55.76
2022-08-29T23:22:26.482Z,56.29
2022-08-29T23:24:58.779Z,56.32
2022-08-29T23:27:30.050Z,56.22
2022-08-29T23:29:57.741Z,56.29
2022-08-29T23:32:24.897Z,56.08
2022-08-29T23:34:52.293Z,56.39
2022-08-29T23:37:19.503Z,56.16
2022-08-29T23:39:46.813Z,56.97
2022-08-29T23:42:14.507Z,57.06
2022-08-29T23:44:41.653Z,56.44
2022-08-29T23:47:08.920Z,56.49
2022-08-29T23:49:36.421Z,57.38
2022-08-29T23:52:04.000Z,57.24
2022-08-29T23:54:31.856Z,57.10
2022-08-29T23:56:59.394Z,57.42
2022-08-29T23:59:45.419Z,57.30
